createdAt,value
2023-04-02T00:00:20.163Z,46.24
2023-04-02T00:03:23.100Z,46.11
2023-04-02T00:06:39.919Z,46.13
2023-04-02T00:09:43.106Z,46.18
2023-04-02T00:13:00.827Z,46.21
2023-04-02T00:16:07.305Z,46.22
2023-04-02T00:19:16.086Z,46.17
2023-04-02T00:22:23.401Z,46.28
2023-04-02T00:25:29.087Z,46.21
2023-04-02T00:28:32.324Z,46.21
2023-04-02T00:31:42.152Z,46.33
2023-04-02T00:34:45.170Z,46.27
2023-04-02T00:37:48.281Z,46.35
2023-04-02T00:40:52.952Z,46.19
2023-04-02T00:43:57.633Z,46.36
2023-04-02T00:47:09.183Z,46.20
2023-04-02T00:50:22.911Z,46.14
2023-04-02T00:53:28.483Z,46.13
2023-04-02T00:56:35.445Z,46.24
2023-04-02T00:59:52.200Z,46.13
2023-04-02T01:03:34.704Z,46.26
2023-04-02T01:06:39.927Z,46.21
2023-04-02T01:10:01.205Z,46.11
2023-04-02T01:13:15.699Z,46.19
2023-04-02T01:16:24.979Z,46.28
2023-04-02T01:19:50.455Z,46.25
2023-04-02T01:23:02.507Z,46.19
2023-04-02T01:26:15.089Z,46.13
2023-04-02T01:29:22.968Z,46.16
2023-04-02T01:32:29.096Z,46.23
2023-04-02T01:35:38.566Z,46.27
2023-04-02T01:38:50.079Z,46.20
2023-04-02T01:42:02.596Z,46.18
2023-04-02T01:45:10.142Z,46.12
2023-04-02T01:48:17.422Z,46.16
2023-04-02T01:51:28.209Z,46.04
2023-04-02T01:54:31.381Z,46.14
2023-04-02T01:57:34.464Z,46.21
2023-04-02T02:00:46.609Z,46.17
2023-04-02T02:03:51.522Z,46.15
2023-04-02T02:06:54.828Z,46.08
2023-04-02T02:09:58.231Z,46.06
2023-04-02T02:13:02.255Z,46.13
2023-04-02T02:16:12.789Z,46.09
2023-04-02T02:19:24.991Z,46.04
2023-04-02T02:22:31.621Z,46.06
2023-04-02T02:25:37.094Z,46.01
2023-04-02T02:28:43.574Z,46.15
2023-04-02T02:31:53.625Z,46.21
2023-04-02T02:35:02.796Z,45.97
2023-04-02T02:38:29.166Z,45.98
2023-04-02T02:41:43.335Z,46.12
2023-04-02T02:44:50.461Z,46.02
2023-04-02T02:47:57.213Z,46.12
2023-04-02T02:51:01.478Z,46.01
2023-04-02T02:54:06.642Z,46.03
2023-04-02T02:57:15.422Z,46.07
2023-04-02T03:00:19.846Z,45.99
2023-04-02T03:03:28.559Z,46.07
2023-04-02T03:06:36.616Z,45.93
2023-04-02T03:09:47.126Z,45.85
2023-04-02T03:12:55.782Z,45.87
2023-04-02T03:16:05.518Z,45.88
2023-04-02T03:19:25.685Z,45.94
2023-04-02T03:22:37.317Z,45.79
2023-04-02T03:25:44.493Z,45.84
2023-04-02T03:28:51.619Z,45.80
2023-04-02T03:31:58.814Z,45.74
2023-04-02T03:35:15.905Z,45.73
2023-04-02T03:38:26.047Z,45.70
2023-04-02T03:41:35.994Z,45.70
2023-04-02T03:44:45.309Z,45.71
2023-04-02T03:47:54.072Z,45.78
2023-04-02T03:51:04.216Z,45.78
2023-04-02T03:54:14.593Z,45.65
2023-04-02T03:57:26.592Z,45.63
2023-04-02T04:00:36.508Z,45.61
2023-04-02T04:03:44.273Z,45.73
2023-04-02T04:06:52.703Z,45.73
2023-04-02T04:09:56.522Z,45.79
2023-04-02T04:13:05.041Z,45.70
2023-04-02T04:16:13.015Z,45.61
2023-04-02T04:19:21.878Z,45.72
2023-04-02T04:22:32.634Z,45.72
2023-04-02T04:25:59.931Z,45.70
2023-04-02T04:29:25.006Z,45.81
2023-04-02T04:32:33.814Z,45.69
2023-04-02T04:35:49.392Z,45.79
2023-04-02T04:38:59.354Z,45.74
2023-04-02T04:42:08.186Z,45.81
2023-04-02T04:45:24.031Z,45.82
2023-04-02T04:48:35.320Z,45.83
2023-04-02T04:51:46.309Z,45.90
2023-04-02T04:54:51.229Z,45.79
2023-04-02T04:58:01.824Z,45.82
2023-04-02T05:01:11.427Z,45.74
2023-04-02T05:04:20.239Z,45.71
2023-04-02T05:07:27.391Z,45.72
2023-04-02T05:10:38.902Z,45.85
2023-04-02T05:13:47.611Z,45.72
2023-04-02T05:16:57.429Z,45.67
2023-04-02T05:20:08.116Z,45.67
2023-04-02T05:23:19.935Z,45.69
2023-04-02T05:26:30.963Z,45.75
2023-04-02T05:29:39.702Z,45.65
2023-04-02T05:32:48.174Z,45.74
2023-04-02T05:35:58.781Z,45.59
2023-04-02T05:39:02.603Z,45.69
2023-04-02T05:42:21.673Z,45.71
2023-04-02T05:45:35.667Z,45.78
2023-04-02T05:48:43.442Z,45.72
2023-04-02T05:51:54.127Z,45.72
2023-04-02T05:55:03.873Z,45.66
2023-04-02T06:01:37.621Z,45.64
2023-04-02T06:04:51.458Z,45.66
2023-04-02T06:07:59.808Z,45.75
2023-04-02T06:11:09.535Z,45.72
2023-04-02T06:14:17.874Z,45.66
2023-04-02T06:17:23.272Z,45.64
2023-04-02T06:20:27.453Z,45.72
2023-04-02T06:23:38.023Z,45.71
2023-04-02T06:26:46.211Z,45.67
2023-04-02T06:29:59.009Z,45.65
2023-04-02T06:33:06.227Z,45.69
2023-04-02T06:36:12.755Z,45.72
2023-04-02T06:39:20.411Z,45.61
2023-04-02T06:42:28.619Z,45.74
2023-04-02T06:45:47.983Z,45.66
2023-04-02T06:49:23.758Z,45.73
2023-04-02T06:52:37.174Z,45.71
2023-04-02T06:55:47.876Z,45.65
2023-04-02T06:58:54.374Z,45.63
2023-04-02T07:02:03.716Z,45.65
2023-04-02T07:05:09.929Z,45.61
2023-04-02T07:08:17.153Z,45.62
2023-04-02T07:11:22.954Z,45.63
2023-04-02T07:14:28.667Z,45.61
2023-04-02T07:17:33.075Z,45.67
2023-04-02T07:20:37.621Z,45.72
2023-04-02T07:23:44.593Z,45.70
2023-04-02T07:26:48.277Z,45.72
2023-04-02T07:29:51.264Z,45.69
2023-04-02T07:32:55.732Z,45.74
2023-04-02T07:35:59.622Z,45.65
2023-04-02T07:39:02.822Z,45.66
2023-04-02T07:42:05.774Z,45.71
2023-04-02T07:45:10.118Z,45.53
2023-04-02T07:48:15.363Z,45.67
2023-04-02T07:51:20.713Z,45.56
2023-04-02T07:54:23.650Z,45.61
2023-04-02T07:57:26.623Z,45.60
2023-04-02T08:00:29.705Z,45.60
2023-04-02T08:03:34.142Z,45.57
2023-04-02T08:06:37.156Z,45.58
2023-04-02T08:09:40.106Z,45.57
2023-04-02T08:12:43.007Z,45.48
2023-04-02T08:15:45.992Z,45.63
2023-04-02T08:18:50.287Z,45.59
2023-04-02T08:21:54.378Z,45.56
2023-04-02T08:24:57.891Z,45.49
2023-04-02T08:28:01.593Z,45.60
2023-04-02T08:31:05.144Z,45.54
2023-04-02T08:34:09.677Z,45.65
2023-04-02T08:37:13.784Z,45.53
2023-04-02T08:40:25.993Z,45.52
2023-04-02T08:43:46.833Z,45.64
2023-04-02T08:46:53.520Z,45.56
2023-04-02T08:50:03.396Z,45.63
2023-04-02T08:53:09.358Z,45.57
2023-04-02T08:56:20.058Z,45.59
2023-04-02T08:59:31.885Z,45.56
2023-04-02T09:02:40.651Z,45.59
2023-04-02T09:05:46.781Z,45.63
2023-04-02T09:08:52.412Z,45.60
2023-04-02T09:12:00.650Z,45.52
2023-04-02T09:15:19.037Z,45.51
2023-04-02T09:18:22.409Z,45.52
2023-04-02T09:21:35.845Z,45.65
2023-04-02T09:24:38.804Z,45.59
2023-04-02T09:27:41.788Z,45.68
2023-04-02T09:31:03.322Z,45.66
2023-04-02T09:34:28.368Z,45.60
2023-04-02T09:37:33.167Z,45.57
2023-04-02T09:40:44.854Z,45.55
2023-04-02T09:43:47.791Z,45.53
2023-04-02T09:46:56.232Z,45.44
2023-04-02T09:50:15.272Z,45.56
2023-04-02T09:53:29.988Z,45.55
2023-04-02T09:56:34.150Z,45.61
2023-04-02T09:59:37.519Z,45.45
2023-04-02T10:02:41.712Z,45.54
2023-04-02T10:05:44.995Z,45.57
2023-04-02T10:08:49.521Z,45.59
2023-04-02T10:11:55.648Z,45.56
2023-04-02T10:15:00.344Z,45.50
2023-04-02T10:18:13.531Z,45.57
2023-04-02T10:21:19.228Z,45.55
2023-04-02T10:24:24.481Z,45.52
2023-04-02T10:27:33.793Z,45.52
2023-04-02T10:30:45.076Z,45.40
2023-04-02T10:33:52.608Z,45.53
2023-04-02T10:36:59.253Z,45.47
2023-04-02T10:40:12.872Z,45.58
2023-04-02T10:43:45.021Z,45.61
2023-04-02T10:46:59.196Z,45.55
2023-04-02T10:50:20.370Z,45.60
2023-04-02T10:53:34.897Z,45.57
2023-04-02T10:56:49.993Z,45.57
2023-04-02T10:59:59.807Z,45.56
2023-04-02T11:03:11.427Z,45.53
2023-04-02T11:06:20.090Z,45.60
2023-04-02T11:09:27.776Z,45.43
2023-04-02T11:12:41.708Z,45.40
2023-04-02T11:15:45.691Z,45.57
2023-04-02T11:19:10.424Z,45.49
2023-04-02T11:22:18.172Z,45.43
2023-04-02T11:25:24.533Z,45.56
2023-04-02T11:28:31.556Z,45.52
2023-04-02T11:31:35.069Z,45.42
2023-04-02T11:35:07.074Z,45.56
2023-04-02T11:38:55.003Z,45.46
2023-04-02T11:42:06.285Z,45.51
2023-04-02T11:45:52.591Z,45.55
2023-04-02T11:49:36.537Z,45.55
2023-04-02T11:52:53.018Z,45.62
2023-04-02T11:56:21.145Z,45.36
2023-04-02T11:59:34.469Z,45.42
2023-04-02T12:02:59.454Z,45.54
2023-04-02T12:06:13.301Z,45.52
2023-04-02T12:09:21.454Z,45.46
2023-04-02T12:12:28.517Z,45.66
2023-04-02T12:15:46.271Z,45.51
2023-04-02T12:18:54.055Z,45.49
2023-04-02T12:22:00.578Z,45.47
2023-04-02T12:25:05.900Z,45.39
2023-04-02T12:28:18.980Z,45.39
2023-04-02T12:31:25.322Z,45.49
2023-04-02T12:34:30.175Z,45.40
2023-04-02T12:37:34.506Z,45.51
2023-04-02T12:40:37.738Z,45.47
2023-04-02T12:43:41.001Z,45.41
2023-04-02T12:46:44.639Z,45.49
2023-04-02T12:49:48.107Z,45.48
2023-04-02T12:52:55.000Z,45.44
2023-04-02T12:55:58.051Z,45.53
2023-04-02T12:59:02.067Z,45.49
2023-04-02T13:02:18.781Z,45.43
2023-04-02T13:05:36.266Z,45.50
2023-04-02T13:08:43.186Z,45.47
2023-04-02T13:11:46.123Z,45.50
2023-04-02T13:14:53.719Z,45.48
2023-04-02T13:18:08.923Z,45.40
2023-04-02T13:21:28.446Z,45.50
2023-04-02T13:24:34.647Z,45.41
2023-04-02T13:27:37.959Z,45.46
2023-04-02T13:30:40.966Z,45.40
2023-04-02T13:33:44.329Z,45.51
2023-04-02T13:36:47.639Z,45.45
2023-04-02T13:39:51.922Z,45.47
2023-04-02T13:42:54.943Z,45.51
2023-04-02T13:46:00.931Z,45.33
2023-04-02T13:49:04.017Z,45.37
2023-04-02T13:52:15.062Z,45.42
2023-04-02T13:55:22.053Z,45.35
2023-04-02T13:58:25.013Z,45.39
2023-04-02T14:01:28.096Z,45.37
2023-04-02T14:04:34.546Z,45.47
2023-04-02T14:07:52.075Z,45.38
2023-04-02T14:11:08.660Z,45.49
2023-04-02T14:14:25.518Z,45.41
2023-04-02T14:17:38.230Z,45.32
2023-04-02T14:20:51.592Z,45.49
2023-04-02T14:24:07.350Z,45.42
2023-04-02T14:27:23.758Z,45.35
2023-04-02T14:30:35.271Z,45.41
2023-04-02T14:33:45.509Z,45.51
2023-04-02T14:37:00.799Z,45.32
2023-04-02T14:40:14.421Z,45.29
2023-04-02T14:43:24.760Z,45.23
2023-04-02T14:46:29.472Z,45.29
2023-04-02T14:49:40.038Z,45.28
2023-04-02T14:52:47.268Z,45.37
2023-04-02T14:55:53.613Z,45.24
2023-04-02T14:59:12.835Z,45.38
2023-04-02T15:02:36.718Z,45.39
2023-04-02T15:05:43.728Z,45.33
2023-04-02T15:08:58.850Z,45.37
2023-04-02T15:12:14.781Z,45.30
2023-04-02T15:15:39.435Z,45.27
2023-04-02T15:18:43.649Z,45.26
2023-04-02T15:22:16.316Z,45.24
2023-04-02T15:25:30.689Z,45.16
2023-04-02T15:28:42.681Z,45.30
2023-04-02T15:31:48.134Z,45.29
2023-04-02T15:34:57.854Z,45.20
2023-04-02T15:38:06.680Z,45.15
2023-04-02T15:41:16.221Z,45.26
2023-04-02T15:44:19.150Z,45.21
2023-04-02T15:47:36.814Z,45.25
2023-04-02T15:50:48.250Z,45.25
2023-04-02T15:54:00.549Z,45.29
2023-04-02T15:57:18.080Z,45.39
2023-04-02T16:00:30.719Z,45.19
2023-04-02T16:04:12.279Z,45.25
2023-04-02T16:07:30.317Z,45.17
2023-04-02T16:10:41.984Z,45.21
2023-04-02T16:13:45.432Z,45.15
2023-04-02T16:16:51.060Z,45.20
2023-04-02T16:20:02.417Z,45.42
2023-04-02T16:23:12.167Z,39.84
2023-04-02T16:26:40.927Z,37.20
2023-04-02T16:30:00.028Z,36.61
2023-04-02T16:33:14.563Z,36.87
2023-04-02T16:36:31.561Z,36.28
2023-04-02T16:39:43.451Z,37.36
2023-04-02T16:42:52.924Z,37.28
2023-04-02T16:46:04.011Z,37.35
2023-04-02T16:49:16.186Z,37.68
2023-04-02T16:52:35.387Z,37.85
2023-04-02T16:55:51.223Z,38.00
2023-04-02T16:59:02.206Z,38.10
2023-04-02T17:02:22.209Z,38.65
2023-04-02T17:05:32.504Z,39.06
2023-04-02T17:08:44.153Z,39.48
2023-04-02T17:11:50.909Z,39.82
2023-04-02T17:14:58.049Z,40.14
2023-04-02T17:18:02.808Z,40.52
2023-04-02T17:21:08.565Z,40.84
2023-04-02T17:24:24.444Z,41.03
2023-04-02T17:27:32.346Z,41.31
2023-04-02T17:30:39.907Z,41.50
2023-04-02T17:33:42.753Z,41.78
2023-04-02T17:36:56.145Z,42.04
2023-04-02T17:40:09.921Z,42.13
2023-04-02T17:43:18.968Z,42.33
2023-04-02T17:46:29.914Z,42.37
2023-04-02T17:49:40.285Z,42.56
2023-04-02T17:52:51.446Z,42.68
2023-04-02T17:56:06.928Z,42.96
2023-04-02T17:59:27.050Z,42.94
2023-04-02T18:02:49.156Z,43.25
2023-04-02T18:05:58.687Z,43.15
2023-04-02T18:09:19.359Z,43.34
2023-04-02T18:12:42.365Z,43.30
2023-04-02T18:15:53.555Z,43.37
2023-04-02T18:19:16.686Z,43.49
2023-04-02T18:22:27.473Z,43.58
2023-04-02T18:25:44.224Z,43.62
2023-04-02T18:29:00.290Z,43.59
2023-04-02T18:32:19.807Z,43.60
2023-04-02T18:35:28.128Z,43.70
2023-04-02T18:38:39.191Z,43.81
2023-04-02T18:41:55.968Z,43.84
2023-04-02T18:45:09.737Z,43.79
2023-04-02T18:48:29.292Z,43.81
2023-04-02T18:51:37.991Z,43.88
2023-04-02T18:54:43.978Z,43.98
2023-04-02T18:57:49.727Z,43.93
2023-04-02T19:00:54.967Z,43.95
2023-04-02T19:04:03.728Z,43.96
2023-04-02T19:07:15.855Z,44.15
2023-04-02T19:10:30.082Z,44.11
2023-04-02T19:13:33.086Z,44.09
2023-04-02T19:17:10.455Z,44.18
2023-04-02T19:20:23.548Z,43.96
2023-04-02T19:23:43.630Z,44.26
2023-04-02T19:26:55.207Z,44.30
2023-04-02T19:30:08.234Z,44.28
2023-04-02T19:33:21.589Z,44.27
2023-04-02T19:36:41.555Z,44.41
2023-04-02T19:40:09.322Z,44.35
2023-04-02T19:43:12.715Z,44.47
2023-04-02T19:46:16.141Z,44.47
2023-04-02T19:49:30.843Z,44.57
2023-04-02T19:52:33.710Z,44.43
2023-04-02T19:55:36.868Z,44.36
2023-04-02T19:58:39.980Z,44.42
2023-04-02T20:01:42.889Z,44.48
2023-04-02T20:04:47.237Z,44.64
2023-04-02T20:07:50.091Z,44.60
2023-04-02T20:10:53.006Z,44.58
2023-04-02T20:13:56.050Z,44.58
2023-04-02T20:16:59.018Z,44.72
2023-04-02T20:20:04.425Z,44.68
2023-04-02T20:23:07.533Z,44.67
2023-04-02T20:26:11.591Z,44.86
2023-04-02T20:29:14.495Z,44.78
2023-04-02T20:32:17.718Z,44.77
2023-04-02T20:35:22.287Z,44.78
2023-04-02T20:38:25.217Z,44.68
2023-04-02T20:41:28.219Z,44.59
2023-04-02T20:44:31.355Z,44.74
2023-04-02T20:47:34.423Z,44.78
2023-04-02T20:50:38.972Z,44.94
2023-04-02T20:53:42.197Z,45.00
2023-04-02T20:56:45.385Z,45.22
2023-04-02T20:59:48.280Z,45.29
2023-04-02T21:02:51.207Z,45.29
2023-04-02T21:05:55.534Z,45.36
2023-04-02T21:08:59.028Z,45.38
2023-04-02T21:12:01.919Z,45.25
2023-04-02T21:15:05.166Z,45.34
2023-04-02T21:18:08.079Z,45.30
2023-04-02T21:21:14.357Z,45.46
2023-04-02T21:24:17.295Z,45.44
2023-04-02T21:27:22.263Z,45.36
2023-04-02T21:30:25.189Z,45.44
2023-04-02T21:33:28.148Z,45.45
2023-04-02T21:36:34.836Z,45.40
2023-04-02T21:39:38.308Z,45.53
2023-04-02T21:42:41.142Z,45.37
2023-04-02T21:45:43.984Z,45.40
2023-04-02T21:48:47.433Z,45.36
2023-04-02T21:51:52.478Z,45.38
2023-04-02T21:54:55.325Z,45.28
2023-04-02T21:57:58.194Z,45.21
2023-04-02T22:01:01.125Z,45.26
2023-04-02T22:04:06.015Z,45.19
2023-04-02T22:07:10.443Z,45.19
2023-04-02T22:10:13.374Z,45.15
2023-04-02T22:13:16.355Z,45.08
2023-04-02T22:16:20.829Z,44.98
2023-04-02T22:19:23.939Z,45.09
2023-04-02T22:22:28.528Z,45.15
2023-04-02T22:25:31.810Z,44.90
2023-04-02T22:28:35.281Z,44.86
2023-04-02T22:31:38.740Z,44.88
2023-04-02T22:34:45.591Z,44.91
2023-04-02T22:37:49.923Z,44.95
2023-04-02T22:40:52.855Z,44.92
2023-04-02T22:43:57.224Z,44.91
2023-04-02T22:47:00.149Z,44.98
2023-04-02T22:50:03.163Z,44.89
2023-04-02T22:53:07.462Z,44.94
2023-04-02T22:56:12.283Z,44.83
2023-04-02T22:59:15.500Z,44.82
2023-04-02T23:02:18.465Z,44.86
2023-04-02T23:05:21.379Z,44.88
2023-04-02T23:08:25.673Z,44.77
2023-04-02T23:11:29.128Z,44.78
2023-04-02T23:14:32.022Z,44.81
2023-04-02T23:17:35.937Z,44.85
2023-04-02T23:20:38.861Z,44.73
2023-04-02T23:23:43.457Z,44.75
2023-04-02T23:26:46.302Z,44.77
2023-04-02T23:29:49.533Z,44.76
2023-04-02T23:32:52.448Z,44.83
2023-04-02T23:35:55.352Z,44.87
2023-04-02T23:39:01.741Z,44.75
2023-04-02T23:42:05.001Z,44.85
2023-04-02T23:45:08.843Z,44.79
2023-04-02T23:48:11.730Z,44.76
2023-04-02T23:51:15.085Z,44.66
2023-04-02T23:54:19.537Z,44.70
2023-04-02T23:57:22.545Z,44.72
